Time;durP1;ratioP1;P1;durP2;ratioP2;P2;SDS_P1;SDS_P2;PMS_P1;PMS_P2;Temp;Humidity;BMP_temperature;BMP_pressure;BME280_temperature;BME280_humidity;BME280_pressure;Samples;Min_cycle;Max_cycle;Signal;HPM_P1;HPM_P2
2023/04/18 00:02:19;;;;;;;;;62.50;50.25;;;;;;;;4986500;28;45409;-75
2023/04/18 00:04:49;;;;;;;;;65.50;49.00;;;;;;;;4987596;28;45434;-75
2023/04/18 00:07:15;;;;;;;;;69.00;54.50;;;;;;;;4987457;28;46663;-76
2023/04/18 00:09:40;;;;;;;;;63.00;51.50;;;;;;;;4986753;28;45441;-76
2023/04/18 00:12:06;;;;;;;;;65.75;51.50;;;;;;;;4986510;28;45259;-75
2023/04/18 00:14:33;;;;;;;;;68.50;52.75;;;;;;;;4985588;28;45444;-74
2023/04/18 00:16:58;;;;;;;;;66.00;53.50;;;;;;;;4986998;28;45444;-74
2023/04/18 00:19:23;;;;;;;;;68.75;53.75;;;;;;;;4986125;28;45540;-76
2023/04/18 00:21:51;;;;;;;;;66.75;54.25;;;;;;;;4985498;28;45445;-74
2023/04/18 00:24:17;;;;;;;;;71.75;57.00;;;;;;;;4987425;28;45424;-74
2023/04/18 00:26:42;;;;;;;;;72.25;56.25;;;;;;;;4986266;28;46155;-74
2023/04/18 00:29:07;;;;;;;;;70.50;55.50;;;;;;;;4985918;28;45403;-75
2023/04/18 00:31:32;;;;;;;;;71.25;56.75;;;;;;;;4987477;28;45360;-75
2023/04/18 00:33:58;;;;;;;;;72.50;54.00;;;;;;;;4985944;28;45440;-74
2023/04/18 00:36:23;;;;;;;;;71.75;55.75;;;;;;;;4986476;28;46166;-74
2023/04/18 00:38:48;;;;;;;;;67.25;55.00;;;;;;;;4985140;28;45389;-75
2023/04/18 00:41:14;;;;;;;;;69.25;55.25;;;;;;;;4985613;28;45311;-75
2023/04/18 00:43:39;;;;;;;;;77.25;58.25;;;;;;;;4986689;28;45393;-75
2023/04/18 00:46:05;;;;;;;;;66.75;51.25;;;;;;;;4986328;28;46184;-75
2023/04/18 00:48:30;;;;;;;;;66.75;55.50;;;;;;;;4986911;28;45521;-75
2023/04/18 00:50:56;;;;;;;;;69.25;54.25;;;;;;;;4987094;28;45349;-75
2023/04/18 00:53:21;;;;;;;;;64.50;51.00;;;;;;;;4985856;28;45258;-75
2023/04/18 00:55:46;;;;;;;;;70.00;55.00;;;;;;;;4985516;28;45293;-75
2023/04/18 00:58:12;;;;;;;;;68.75;56.00;;;;;;;;4986679;28;45551;-76
2023/04/18 01:00:38;;;;;;;;;66.00;52.50;;;;;;;;4985556;28;45577;-75
2023/04/18 01:03:03;;;;;;;;;65.50;51.50;;;;;;;;4985278;28;45465;-74
2023/04/18 01:05:28;;;;;;;;;63.75;50.75;;;;;;;;4985167;28;46327;-75
2023/04/18 01:07:59;;;;;;;;;70.50;55.75;;;;;;;;4985548;28;46226;-75
2023/04/18 01:10:25;;;;;;;;;74.00;57.75;;;;;;;;4984982;28;45357;-75
2023/04/18 01:13:07;;;;;;;;;68.75;53.00;;;;;;;;4986687;28;45800;-75
2023/04/18 01:15:33;;;;;;;;;67.50;53.00;;;;;;;;4984496;28;45404;-77
2023/04/18 01:17:58;;;;;;;;;76.25;60.75;;;;;;;;4986572;28;45394;-75
2023/04/18 01:20:25;;;;;;;;;67.25;53.75;;;;;;;;4985839;28;45451;-76
2023/04/18 01:22:50;;;;;;;;;62.50;51.25;;;;;;;;4985166;28;45338;-75
2023/04/18 01:25:16;;;;;;;;;69.00;55.00;;;;;;;;4985615;28;47154;-75
2023/04/18 01:27:41;;;;;;;;;64.00;51.25;;;;;;;;4985678;28;45349;-75
2023/04/18 01:30:06;;;;;;;;;69.75;55.75;;;;;;;;4988172;28;45316;-74
2023/04/18 01:32:32;;;;;;;;;66.50;53.25;;;;;;;;4985081;28;45424;-74
2023/04/18 01:34:57;;;;;;;;;73.25;57.25;;;;;;;;4987239;28;45618;-75
2023/04/18 01:37:22;;;;;;;;;67.75;55.00;;;;;;;;4986642;28;45458;-76
2023/04/18 01:39:47;;;;;;;;;69.00;55.00;;;;;;;;4987490;28;45460;-75
2023/04/18 01:42:12;;;;;;;;;72.50;55.25;;;;;;;;4987963;28;45380;-75
2023/04/18 01:44:38;;;;;;;;;67.75;53.25;;;;;;;;4984572;28;46210;-74
2023/04/18 01:47:03;;;;;;;;;62.00;48.50;;;;;;;;4986604;28;45640;-74
2023/04/18 01:49:28;;;;;;;;;72.75;54.25;;;;;;;;4984491;28;45711;-73
2023/04/18 01:51:53;;;;;;;;;69.00;54.25;;;;;;;;4985122;28;45597;-73
2023/04/18 01:54:19;;;;;;;;;68.75;55.00;;;;;;;;4982636;28;46605;-74
2023/04/18 01:56:44;;;;;;;;;66.00;53.00;;;;;;;;4982412;28;45617;-74
2023/04/18 01:59:09;;;;;;;;;69.25;54.00;;;;;;;;4984808;28;45737;-74
2023/04/18 02:01:34;;;;;;;;;71.25;52.75;;;;;;;;4985606;28;45571;-75
2023/04/18 02:04:00;;;;;;;;;71.00;57.75;;;;;;;;4984419;28;47104;-74
2023/04/18 02:06:25;;;;;;;;;68.75;54.00;;;;;;;;4983720;28;46106;-74
2023/04/18 02:08:50;;;;;;;;;67.25;53.25;;;;;;;;4986059;28;45460;-74
2023/04/18 02:11:16;;;;;;;;;68.50;55.00;;;;;;;;4983591;28;45452;-75
2023/04/18 02:13:41;;;;;;;;;69.00;54.50;;;;;;;;4985524;28;45564;-74
2023/04/18 02:16:11;;;;;;;;;64.00;53.00;;;;;;;;4985445;28;45550;-74
2023/04/18 02:18:38;;;;;;;;;70.00;54.50;;;;;;;;4983734;28;45397;-74
2023/04/18 02:21:03;;;;;;;;;64.50;51.00;;;;;;;;4984543;28;45527;-75
2023/04/18 02:23:28;;;;;;;;;66.25;52.25;;;;;;;;4985334;28;46229;-74
2023/04/18 02:25:53;;;;;;;;;74.75;56.50;;;;;;;;4983565;28;45425;-74
2023/04/18 02:28:19;;;;;;;;;72.50;56.00;;;;;;;;4982852;28;45354;-75
2023/04/18 02:30:44;;;;;;;;;70.50;54.50;;;;;;;;4984769;28;45310;-75
2023/04/18 02:33:09;;;;;;;;;66.75;53.50;;;;;;;;4984741;28;45544;-75
2023/04/18 02:35:36;;;;;;;;;67.75;53.50;;;;;;;;4985709;28;45463;-74
2023/04/18 02:38:01;;;;;;;;;68.00;53.25;;;;;;;;4984278;28;45361;-74
2023/04/18 02:40:26;;;;;;;;;67.25;54.50;;;;;;;;4984092;28;45391;-75
2023/04/18 02:42:51;;;;;;;;;65.50;51.00;;;;;;;;4985515;28;45389;-75
2023/04/18 02:45:17;;;;;;;;;63.75;50.50;;;;;;;;4982656;28;45579;-74
2023/04/18 02:47:44;;;;;;;;;61.75;52.00;;;;;;;;4984523;28;45259;-74
2023/04/18 02:50:09;;;;;;;;;63.75;52.00;;;;;;;;4983874;28;45290;-74
2023/04/18 02:52:34;;;;;;;;;64.25;52.50;;;;;;;;4985417;28;45279;-74
2023/04/18 02:55:00;;;;;;;;;64.25;49.25;;;;;;;;4983532;28;45308;-73
2023/04/18 02:57:25;;;;;;;;;63.75;50.00;;;;;;;;4984634;28;45489;-74
2023/04/18 02:59:50;;;;;;;;;68.25;52.00;;;;;;;;4984038;28;45374;-74
2023/04/18 03:02:15;;;;;;;;;67.00;54.00;;;;;;;;4985204;28;45338;-75
2023/04/18 03:04:40;;;;;;;;;60.50;50.25;;;;;;;;4983948;28;45258;-74
2023/04/18 03:07:05;;;;;;;;;67.50;51.00;;;;;;;;4984227;28;45410;-74
2023/04/18 03:09:31;;;;;;;;;72.50;57.25;;;;;;;;4984845;28;45492;-74
2023/04/18 03:11:56;;;;;;;;;67.75;53.00;;;;;;;;4982851;28;47544;-74
2023/04/18 03:14:21;;;;;;;;;63.75;51.00;;;;;;;;4987909;28;45543;-74
2023/04/18 03:16:46;;;;;;;;;71.50;54.75;;;;;;;;4988946;28;45303;-74
2023/04/18 03:19:12;;;;;;;;;72.75;56.50;;;;;;;;4987481;28;45538;-74
2023/04/18 03:21:37;;;;;;;;;69.25;56.75;;;;;;;;4984116;28;47248;-74
2023/04/18 03:24:02;;;;;;;;;73.50;55.50;;;;;;;;4987115;28;45467;-74
2023/04/18 03:26:27;;;;;;;;;74.25;56.75;;;;;;;;4987204;28;45479;-75
2023/04/18 03:28:53;;;;;;;;;68.75;53.25;;;;;;;;4987658;28;45590;-73
2023/04/18 03:31:18;;;;;;;;;71.25;56.00;;;;;;;;4986641;28;46053;-74
2023/04/18 03:33:44;;;;;;;;;65.50;53.25;;;;;;;;4987644;28;45621;-75
2023/04/18 03:36:16;;;;;;;;;69.25;54.25;;;;;;;;4987935;28;45567;-74
2023/04/18 03:38:41;;;;;;;;;70.50;57.00;;;;;;;;4984555;28;45433;-74
2023/04/18 03:41:06;;;;;;;;;69.50;56.00;;;;;;;;4987113;28;45393;-74
2023/04/18 03:43:31;;;;;;;;;72.00;55.75;;;;;;;;4986834;28;45456;-74
2023/04/18 03:45:57;;;;;;;;;74.00;57.25;;;;;;;;4985951;28;45424;-75
2023/04/18 03:48:22;;;;;;;;;71.50;55.25;;;;;;;;4988195;28;45747;-75
2023/04/18 03:50:47;;;;;;;;;75.25;57.50;;;;;;;;4986579;28;45472;-74
2023/04/18 03:53:13;;;;;;;;;70.00;53.00;;;;;;;;4986569;28;45317;-75
2023/04/18 03:55:38;;;;;;;;;67.75;53.25;;;;;;;;4985947;28;45540;-74
2023/04/18 03:58:03;;;;;;;;;75.75;60.00;;;;;;;;4986993;28;45353;-74
2023/04/18 04:00:29;;;;;;;;;73.00;56.75;;;;;;;;4986528;28;45646;-74
2023/04/18 04:02:54;;;;;;;;;71.75;55.25;;;;;;;;4986746;28;45431;-74
2023/04/18 04:05:19;;;;;;;;;75.25;59.50;;;;;;;;4986224;28;45488;-73
2023/04/18 04:07:44;;;;;;;;;78.50;62.00;;;;;;;;4986810;28;45423;-75
2023/04/18 04:10:10;;;;;;;;;77.75;60.25;;;;;;;;4987357;28;46457;-74
2023/04/18 04:12:35;;;;;;;;;72.50;56.25;;;;;;;;4985773;28;45424;-74
2023/04/18 04:15:00;;;;;;;;;74.50;57.25;;;;;;;;4986312;28;45519;-75
2023/04/18 04:17:25;;;;;;;;;69.50;54.75;;;;;;;;4986781;28;45357;-75
2023/04/18 04:19:50;;;;;;;;;73.75;56.25;;;;;;;;4985738;28;46351;-74
2023/04/18 04:22:16;;;;;;;;;68.25;55.25;;;;;;;;4985946;28;46221;-74
2023/04/18 04:24:41;;;;;;;;;72.75;58.25;;;;;;;;4985963;28;45348;-76
2023/04/18 04:27:06;;;;;;;;;69.25;55.75;;;;;;;;4986589;28;45382;-74
2023/04/18 04:29:32;;;;;;;;;74.25;57.75;;;;;;;;4977174;28;45334;-75
2023/04/18 04:31:58;;;;;;;;;72.00;58.75;;;;;;;;4974871;28;45377;-76
2023/04/18 04:34:23;;;;;;;;;73.25;58.25;;;;;;;;4977009;28;45477;-76
2023/04/18 04:36:49;;;;;;;;;69.00;55.25;;;;;;;;4977107;28;45386;-76
2023/04/18 04:39:16;;;;;;;;;70.00;55.75;;;;;;;;4977053;28;45527;-74
2023/04/18 04:41:41;;;;;;;;;72.50;57.50;;;;;;;;4975905;28;45361;-75
2023/04/18 04:44:06;;;;;;;;;71.50;56.00;;;;;;;;4977756;28;45778;-75
2023/04/18 04:46:32;;;;;;;;;69.00;55.50;;;;;;;;4977218;28;45448;-76
2023/04/18 04:48:58;;;;;;;;;73.25;58.00;;;;;;;;4977525;28;45451;-75
2023/04/18 04:51:23;;;;;;;;;72.75;57.00;;;;;;;;4977400;28;45362;-75
2023/04/18 04:53:48;;;;;;;;;72.00;56.75;;;;;;;;4978997;28;45540;-76
2023/04/18 04:56:14;;;;;;;;;72.50;56.25;;;;;;;;4961697;28;45692;-76
2023/04/18 04:58:39;;;;;;;;;76.00;57.75;;;;;;;;4957107;28;45630;-76
2023/04/18 05:01:06;;;;;;;;;78.75;59.25;;;;;;;;4956135;28;45547;-75
2023/04/18 05:03:32;;;;;;;;;76.25;59.75;;;;;;;;4956857;28;45495;-76
2023/04/18 05:05:57;;;;;;;;;73.50;59.50;;;;;;;;4956247;28;45424;-76
2023/04/18 05:08:22;;;;;;;;;72.00;56.75;;;;;;;;4956208;28;46463;-75
2023/04/18 05:10:48;;;;;;;;;74.00;56.25;;;;;;;;4956231;28;45437;-75
2023/04/18 05:13:14;;;;;;;;;71.50;56.50;;;;;;;;4964492;28;45506;-76
2023/04/18 05:15:39;;;;;;;;;71.75;56.50;;;;;;;;4995472;28;46505;-75
2023/04/18 05:18:05;;;;;;;;;72.50;57.75;;;;;;;;4996064;28;46145;-76
2023/04/18 05:20:30;;;;;;;;;69.00;56.50;;;;;;;;4995918;28;45428;-76
2023/04/18 05:22:55;;;;;;;;;68.50;55.00;;;;;;;;4995558;28;45404;-75
2023/04/18 05:25:20;;;;;;;;;71.75;56.25;;;;;;;;4995457;28;45310;-76
2023/04/18 05:27:46;;;;;;;;;71.75;56.25;;;;;;;;4994143;28;47311;-75
2023/04/18 05:30:11;;;;;;;;;66.75;52.25;;;;;;;;4979234;28;45432;-74
2023/04/18 05:32:37;;;;;;;;;70.25;54.25;;;;;;;;4975730;28;45401;-74
2023/04/18 05:35:03;;;;;;;;;63.75;51.50;;;;;;;;4975258;28;45539;-73
2023/04/18 05:37:28;;;;;;;;;69.25;57.25;;;;;;;;4974342;28;46978;-73
2023/04/18 05:39:54;;;;;;;;;67.50;53.75;;;;;;;;4976083;28;45293;-72
2023/04/18 05:42:19;;;;;;;;;71.50;56.25;;;;;;;;4974782;28;45314;-74
2023/04/18 05:44:44;;;;;;;;;70.25;55.75;;;;;;;;4976311;28;45535;-73
2023/04/18 05:47:09;;;;;;;;;71.00;56.00;;;;;;;;4976112;28;45368;-73
2023/04/18 05:49:34;;;;;;;;;71.25;56.50;;;;;;;;4975496;28;45586;-74
2023/04/18 05:52:00;;;;;;;;;72.00;55.25;;;;;;;;4994746;28;45364;-73
2023/04/18 05:54:26;;;;;;;;;72.25;58.00;;;;;;;;4976916;28;45313;-73
2023/04/18 05:56:51;;;;;;;;;62.00;50.00;;;;;;;;4977191;28;46006;-74
2023/04/18 05:59:16;;;;;;;;;67.00;53.75;;;;;;;;4995911;28;45446;-73
2023/04/18 06:01:41;;;;;;;;;71.00;56.00;;;;;;;;4995928;28;45396;-73
2023/04/18 06:04:07;;;;;;;;;69.00;55.00;;;;;;;;4995569;28;45249;-73
2023/04/18 06:06:33;;;;;;;;;77.75;61.25;;;;;;;;4976500;28;45471;-74
2023/04/18 06:08:58;;;;;;;;;74.00;56.75;;;;;;;;4975825;28;45389;-74
2023/04/18 06:11:23;;;;;;;;;62.50;52.50;;;;;;;;4980404;28;45524;-74
2023/04/18 06:13:48;;;;;;;;;68.50;55.25;;;;;;;;4966278;28;45572;-74
2023/04/18 06:16:13;;;;;;;;;68.50;53.75;;;;;;;;4978783;28;46019;-74
2023/04/18 06:18:39;;;;;;;;;68.50;54.50;;;;;;;;4975181;28;45357;-74
2023/04/18 06:21:04;;;;;;;;;65.75;52.00;;;;;;;;4975506;28;45255;-74
2023/04/18 06:23:29;;;;;;;;;71.75;54.75;;;;;;;;4975232;28;45413;-74
2023/04/18 06:25:55;;;;;;;;;69.25;55.75;;;;;;;;4975470;28;46325;-75
2023/04/18 06:28:20;;;;;;;;;71.50;56.75;;;;;;;;4975542;28;45424;-75
2023/04/18 06:30:45;;;;;;;;;68.25;56.00;;;;;;;;4975455;28;45346;-74
2023/04/18 06:33:11;;;;;;;;;66.00;53.75;;;;;;;;4975543;28;45314;-74
2023/04/18 06:35:36;;;;;;;;;66.50;54.00;;;;;;;;4975134;28;45311;-74
2023/04/18 06:38:01;;;;;;;;;62.50;51.50;;;;;;;;4975273;28;45371;-73
2023/04/18 06:40:27;;;;;;;;;74.75;57.00;;;;;;;;4975308;28;45337;-74
2023/04/18 06:42:52;;;;;;;;;71.25;56.00;;;;;;;;4974865;28;45320;-74
2023/04/18 06:45:17;;;;;;;;;65.75;51.25;;;;;;;;4975026;28;46004;-74
2023/04/18 06:47:43;;;;;;;;;71.50;55.00;;;;;;;;4975744;28;45401;-74
2023/04/18 06:50:08;;;;;;;;;68.50;54.50;;;;;;;;4978636;28;45314;-74
2023/04/18 06:52:35;;;;;;;;;62.25;50.75;;;;;;;;4978630;28;45536;-74
2023/04/18 06:55:00;;;;;;;;;66.75;53.75;;;;;;;;4972745;28;46154;-74
2023/04/18 06:57:26;;;;;;;;;68.00;53.25;;;;;;;;4958832;28;45465;-74
2023/04/18 06:59:51;;;;;;;;;60.25;51.00;;;;;;;;4959322;28;45395;-74
2023/04/18 07:02:16;;;;;;;;;65.75;53.25;;;;;;;;4958560;28;45521;-74
2023/04/18 07:04:41;;;;;;;;;68.50;53.50;;;;;;;;4964418;28;46333;-74
2023/04/18 07:07:06;;;;;;;;;71.50;56.75;;;;;;;;4976254;28;45432;-74
2023/04/18 07:09:32;;;;;;;;;69.50;54.75;;;;;;;;4976679;28;45431;-74
2023/04/18 07:11:57;;;;;;;;;70.00;53.25;;;;;;;;4978089;28;45422;-74
2023/04/18 07:14:23;;;;;;;;;71.25;55.00;;;;;;;;4978222;28;46337;-75
2023/04/18 07:16:48;;;;;;;;;72.25;54.50;;;;;;;;4977750;28;45492;-74
2023/04/18 07:19:13;;;;;;;;;64.00;51.75;;;;;;;;4977802;28;45467;-74
2023/04/18 07:21:41;;;;;;;;;73.25;58.00;;;;;;;;4977923;28;45254;-74
2023/04/18 07:24:06;;;;;;;;;67.75;53.00;;;;;;;;4977682;28;46678;-74
2023/04/18 07:26:31;;;;;;;;;70.50;55.75;;;;;;;;4976391;28;45375;-74
2023/04/18 07:28:57;;;;;;;;;68.75;53.50;;;;;;;;4976757;28;45642;-75
2023/04/18 07:31:24;;;;;;;;;73.00;56.00;;;;;;;;4977700;28;45337;-74
2023/04/18 07:33:49;;;;;;;;;63.75;50.00;;;;;;;;4977722;28;45943;-74
2023/04/18 07:36:15;;;;;;;;;65.75;52.00;;;;;;;;4977541;28;45428;-74
2023/04/18 07:38:40;;;;;;;;;68.75;55.00;;;;;;;;4976527;28;45393;-74
2023/04/18 07:41:05;;;;;;;;;58.75;48.25;;;;;;;;4977728;28;45449;-74
2023/04/18 07:43:31;;;;;;;;;68.00;54.50;;;;;;;;4977703;28;46512;-74
2023/04/18 07:45:56;;;;;;;;;67.00;52.25;;;;;;;;4977596;28;45534;-74
2023/04/18 07:48:21;;;;;;;;;67.00;53.50;;;;;;;;4977518;28;45325;-74
2023/04/18 07:50:47;;;;;;;;;64.75;52.50;;;;;;;;4977898;28;45408;-75
2023/04/18 07:53:13;;;;;;;;;66.25;52.75;;;;;;;;4977879;28;45234;-75
2023/04/18 07:55:38;;;;;;;;;70.00;54.50;;;;;;;;4967844;28;45362;-74
2023/04/18 07:58:03;;;;;;;;;72.50;55.50;;;;;;;;4958432;28;45397;-75
2023/04/18 08:00:31;;;;;;;;;75.50;59.75;;;;;;;;4959126;28;45381;-75
2023/04/18 08:02:56;;;;;;;;;70.25;56.50;;;;;;;;4959373;28;45223;-73
2023/04/18 08:05:21;;;;;;;;;73.75;59.25;;;;;;;;4969879;28;45455;-74
2023/04/18 08:07:46;;;;;;;;;65.25;52.25;;;;;;;;4980592;28;45293;-74
2023/04/18 08:10:12;;;;;;;;;70.75;56.50;;;;;;;;4977300;28;45326;-75
2023/04/18 08:12:37;;;;;;;;;68.50;56.50;;;;;;;;4976764;28;47315;-74
2023/04/18 08:15:02;;;;;;;;;67.25;53.50;;;;;;;;4977300;28;45348;-75
2023/04/18 08:17:28;;;;;;;;;72.75;57.50;;;;;;;;4976910;28;45406;-74
2023/04/18 08:19:53;;;;;;;;;68.50;55.75;;;;;;;;4976367;28;45327;-75
2023/04/18 08:22:18;;;;;;;;;55.75;47.75;;;;;;;;4977042;28;46369;-75
2023/04/18 08:24:44;;;;;;;;;60.00;50.50;;;;;;;;4976667;28;45692;-74
2023/04/18 08:27:09;;;;;;;;;65.75;52.75;;;;;;;;4976811;28;45445;-74
2023/04/18 08:29:34;;;;;;;;;66.75;54.00;;;;;;;;4977243;28;45411;-74
2023/04/18 08:31:59;;;;;;;;;67.25;53.75;;;;;;;;4976576;28;46037;-74
2023/04/18 08:34:24;;;;;;;;;70.00;54.25;;;;;;;;4959121;28;46001;-75
2023/04/18 08:36:50;;;;;;;;;69.75;55.00;;;;;;;;4975694;28;45445;-74
2023/04/18 08:39:15;;;;;;;;;68.25;54.25;;;;;;;;4977182;28;45515;-74
2023/04/18 08:41:41;;;;;;;;;73.50;55.75;;;;;;;;4976368;28;45630;-74
2023/04/18 08:44:06;;;;;;;;;70.50;55.25;;;;;;;;4977084;28;45404;-74
2023/04/18 08:46:32;;;;;;;;;69.75;52.50;;;;;;;;4976865;28;45446;-75
2023/04/18 08:48:59;;;;;;;;;64.75;50.00;;;;;;;;4977071;28;45519;-74
2023/04/18 08:51:28;;;;;;;;;64.00;52.00;;;;;;;;4976629;28;46341;-73
2023/04/18 08:53:54;;;;;;;;;66.00;53.00;;;;;;;;4976558;28;45432;-74
2023/04/18 08:56:24;;;;;;;;;67.00;52.25;;;;;;;;4959868;28;45488;-75
2023/04/18 08:58:51;;;;;;;;;68.00;53.50;;;;;;;;4957437;28;45311;-74
2023/04/18 09:01:16;;;;;;;;;54.50;46.75;;;;;;;;4961586;28;46402;-75
2023/04/18 09:03:42;;;;;;;;;68.50;52.75;;;;;;;;4975855;28;45282;-74
2023/04/18 09:06:08;;;;;;;;;64.75;48.50;;;;;;;;4976402;28;45380;-74
2023/04/18 09:08:34;;;;;;;;;73.00;56.25;;;;;;;;4976501;28;45337;-75
2023/04/18 09:11:19;;;;;;;;;65.75;53.00;;;;;;;;4974809;28;45660;-75
2023/04/18 09:13:46;;;;;;;;;65.75;51.25;;;;;;;;4977081;28;45566;-74
2023/04/18 09:16:12;;;;;;;;;56.25;46.00;;;;;;;;4969461;28;47135;-74
2023/04/18 09:18:37;;;;;;;;;68.50;52.50;;;;;;;;4973227;28;45684;-76
2023/04/18 09:21:19;;;;;;;;;64.75;50.25;;;;;;;;4986520;28;48426;-76
2023/04/18 09:23:49;;;;;;;;;63.00;49.75;;;;;;;;4984669;28;45498;-76
2023/04/18 09:26:19;;;;;;;;;57.75;47.00;;;;;;;;4982346;28;45448;-76
2023/04/18 09:28:51;;;;;;;;;51.25;42.00;;;;;;;;4991084;28;45483;-76
2023/04/18 09:31:16;;;;;;;;;64.75;52.75;;;;;;;;4972200;28;46516;-76
2023/04/18 09:33:51;;;;;;;;;63.25;49.75;;;;;;;;4975910;28;45247;-76
2023/04/18 09:36:17;;;;;;;;;56.00;45.00;;;;;;;;4986846;28;45545;-76
2023/04/18 09:38:42;;;;;;;;;56.25;45.75;;;;;;;;4991945;28;45426;-76
2023/04/18 09:41:09;;;;;;;;;56.50;46.75;;;;;;;;4979172;28;45602;-76
2023/04/18 09:43:34;;;;;;;;;54.50;44.75;;;;;;;;4986144;28;45572;-76
2023/04/18 09:46:00;;;;;;;;;57.50;48.25;;;;;;;;4985282;28;45480;-76
2023/04/18 09:48:25;;;;;;;;;53.25;42.25;;;;;;;;4988461;28;45457;-76
2023/04/18 09:50:51;;;;;;;;;53.00;43.75;;;;;;;;4991557;28;46509;-76
2023/04/18 09:53:17;;;;;;;;;63.25;51.00;;;;;;;;4980671;28;45423;-76
2023/04/18 09:55:43;;;;;;;;;62.25;48.50;;;;;;;;4992447;28;45405;-75
2023/04/18 09:58:09;;;;;;;;;60.25;50.00;;;;;;;;4982324;28;45348;-75
2023/04/18 10:00:35;;;;;;;;;61.00;50.50;;;;;;;;4987374;28;45373;-76
2023/04/18 10:03:01;;;;;;;;;54.00;43.00;;;;;;;;4979011;28;45654;-75
2023/04/18 10:05:29;;;;;;;;;53.25;42.75;;;;;;;;4988023;28;45437;-75
2023/04/18 10:07:55;;;;;;;;;41.25;35.75;;;;;;;;4986073;28;45583;-75
2023/04/18 10:10:20;;;;;;;;;60.00;49.75;;;;;;;;4985453;28;45523;-75
2023/04/18 10:12:46;;;;;;;;;55.75;44.00;;;;;;;;4990802;28;45433;-76
2023/04/18 10:15:14;;;;;;;;;53.25;43.25;;;;;;;;4990272;28;45508;-76
2023/04/18 10:17:41;;;;;;;;;55.00;45.25;;;;;;;;4983925;28;45387;-75
2023/04/18 10:20:07;;;;;;;;;56.50;47.25;;;;;;;;4982657;28;46181;-76
2023/04/18 10:22:32;;;;;;;;;60.25;50.00;;;;;;;;4990338;28;45420;-75
2023/04/18 10:24:58;;;;;;;;;58.00;47.25;;;;;;;;4977864;28;45430;-76
2023/04/18 10:27:42;;;;;;;;;51.75;40.50;;;;;;;;4988755;28;45443;-75
2023/04/18 10:30:07;;;;;;;;;50.00;43.00;;;;;;;;4975189;28;45425;-76
2023/04/18 10:32:32;;;;;;;;;56.00;46.00;;;;;;;;4975201;28;45398;-75
2023/04/18 10:34:58;;;;;;;;;58.25;47.50;;;;;;;;4974023;28;45500;-76
2023/04/18 10:37:24;;;;;;;;;51.50;42.00;;;;;;;;4975456;28;45368;-76
2023/04/18 10:39:53;;;;;;;;;53.25;42.25;;;;;;;;4981234;28;48579;-76
2023/04/18 10:42:18;;;;;;;;;52.25;41.00;;;;;;;;4993516;28;45428;-76
2023/04/18 10:45:03;;;;;;;;;59.75;47.75;;;;;;;;4990084;28;45403;-75
2023/04/18 10:47:28;;;;;;;;;56.75;47.25;;;;;;;;4974789;28;45442;-75
2023/04/18 10:49:55;;;;;;;;;52.50;43.00;;;;;;;;4974726;28;46286;-76
2023/04/18 10:52:20;;;;;;;;;40.50;35.00;;;;;;;;4973563;28;45433;-76
2023/04/18 10:54:54;;;;;;;;;49.00;39.25;;;;;;;;4975315;28;45246;-76
2023/04/18 10:57:19;;;;;;;;;52.75;43.25;;;;;;;;4973984;28;45464;-75
2023/04/18 10:59:48;;;;;;;;;57.25;47.00;;;;;;;;4975458;28;46050;-75
2023/04/18 11:02:25;;;;;;;;;47.25;38.75;;;;;;;;4974849;28;45302;-75
2023/04/18 11:04:55;;;;;;;;;53.75;44.25;;;;;;;;4975176;28;45475;-75
2023/04/18 11:07:36;;;;;;;;;50.75;43.50;;;;;;;;4974688;28;45452;-75
2023/04/18 11:10:02;;;;;;;;;58.00;47.25;;;;;;;;4975190;28;45948;-76
2023/04/18 11:12:31;;;;;;;;;55.00;47.00;;;;;;;;4965964;28;45396;-75
2023/04/18 11:14:57;;;;;;;;;45.00;37.75;;;;;;;;4955851;28;45361;-76
2023/04/18 11:17:22;;;;;;;;;53.25;43.75;;;;;;;;4956311;28;45359;-76
2023/04/18 11:19:48;;;;;;;;;54.75;45.75;;;;;;;;4956352;28;45729;-76
2023/04/18 11:22:14;;;;;;;;;42.25;37.00;;;;;;;;4972766;28;45282;-74
2023/04/18 11:24:40;;;;;;;;;60.25;50.00;;;;;;;;4975174;28;45460;-75
2023/04/18 11:27:07;;;;;;;;;53.25;42.00;;;;;;;;4975913;28;45393;-75
2023/04/18 11:29:32;;;;;;;;;63.00;51.00;;;;;;;;4975729;28;47558;-76
2023/04/18 11:31:58;;;;;;;;;54.25;43.75;;;;;;;;4977291;28;45367;-76
2023/04/18 11:34:27;;;;;;;;;54.75;42.25;;;;;;;;4978954;28;45341;-76
2023/04/18 11:36:52;;;;;;;;;57.00;45.75;;;;;;;;4979406;28;45292;-76
2023/04/18 11:39:18;;;;;;;;;42.50;36.25;;;;;;;;4978157;28;45259;-77
2023/04/18 11:41:49;;;;;;;;;59.00;47.00;;;;;;;;4976628;28;45474;-76
2023/04/18 11:44:14;;;;;;;;;59.25;49.00;;;;;;;;4977535;28;45524;-76
2023/04/18 11:46:40;;;;;;;;;60.75;48.25;;;;;;;;4978097;28;45374;-76
2023/04/18 11:49:05;;;;;;;;;55.50;45.50;;;;;;;;4977769;28;45412;-76
2023/04/18 11:51:37;;;;;;;;;52.50;43.00;;;;;;;;4977643;28;45278;-76
2023/04/18 11:54:02;;;;;;;;;47.50;40.50;;;;;;;;4978022;28;45384;-76
2023/04/18 11:56:28;;;;;;;;;52.00;41.75;;;;;;;;4960174;28;45399;-75
2023/04/18 11:58:53;;;;;;;;;50.75;42.50;;;;;;;;4956890;28;47056;-76
2023/04/18 12:01:19;;;;;;;;;42.50;36.00;;;;;;;;4972433;28;45547;-75
2023/04/18 12:04:04;;;;;;;;;45.00;38.25;;;;;;;;4978010;28;45363;-74
2023/04/18 12:06:47;;;;;;;;;42.00;36.75;;;;;;;;4977294;28;45393;-75
2023/04/18 12:09:13;;;;;;;;;46.00;37.00;;;;;;;;4977306;28;47215;-74
2023/04/18 12:11:39;;;;;;;;;41.50;34.50;;;;;;;;4977486;28;45401;-75
2023/04/18 12:14:04;;;;;;;;;41.50;34.00;;;;;;;;4975975;28;45498;-74
2023/04/18 12:16:30;;;;;;;;;44.75;38.25;;;;;;;;4977396;28;45620;-75
2023/04/18 12:18:59;;;;;;;;;41.75;37.50;;;;;;;;4977441;28;46098;-75
2023/04/18 12:21:28;;;;;;;;;44.00;38.75;;;;;;;;4976550;28;45468;-74
2023/04/18 12:23:54;;;;;;;;;39.00;34.25;;;;;;;;4977313;28;45428;-74
2023/04/18 12:26:21;;;;;;;;;43.00;38.25;;;;;;;;4977476;28;45444;-74
2023/04/18 12:28:49;;;;;;;;;34.75;31.00;;;;;;;;4977020;28;47165;-75
2023/04/18 12:31:14;;;;;;;;;28.25;28.00;;;;;;;;4977071;28;45345;-75
2023/04/18 12:33:39;;;;;;;;;41.25;36.50;;;;;;;;4976489;28;45359;-74
2023/04/18 12:36:07;;;;;;;;;38.25;32.75;;;;;;;;4976911;28;45371;-76
2023/04/18 12:38:32;;;;;;;;;41.75;35.25;;;;;;;;4976444;28;46970;-75
2023/04/18 12:40:57;;;;;;;;;37.50;32.00;;;;;;;;4976430;28;45398;-75
2023/04/18 12:43:22;;;;;;;;;35.75;33.00;;;;;;;;4977128;28;45369;-75
2023/04/18 12:45:48;;;;;;;;;42.50;36.50;;;;;;;;4976602;28;45353;-75
2023/04/18 12:48:13;;;;;;;;;46.50;38.75;;;;;;;;4976235;28;45460;-74
2023/04/18 12:50:38;;;;;;;;;37.25;33.50;;;;;;;;4975794;28;45396;-75
2023/04/18 12:53:04;;;;;;;;;43.75;33.75;;;;;;;;4975753;28;45448;-74
2023/04/18 12:55:30;;;;;;;;;49.00;40.25;;;;;;;;4975957;28;45358;-75
2023/04/18 12:57:55;;;;;;;;;43.50;37.00;;;;;;;;4976546;28;46985;-75
2023/04/18 13:00:22;;;;;;;;;42.75;34.50;;;;;;;;4976886;28;45282;-75
2023/04/18 13:02:47;;;;;;;;;39.50;35.25;;;;;;;;4969981;28;45575;-75
2023/04/18 13:05:13;;;;;;;;;42.00;37.50;;;;;;;;4977324;28;45429;-74
2023/04/18 13:07:41;;;;;;;;;38.75;34.25;;;;;;;;4988386;28;46087;-74
2023/04/18 13:10:10;;;;;;;;;44.75;36.00;;;;;;;;4978953;28;45563;-74
2023/04/18 13:12:36;;;;;;;;;45.75;37.25;;;;;;;;4989643;28;45407;-74
2023/04/18 13:15:02;;;;;;;;;40.25;35.50;;;;;;;;4977399;28;45456;-74
2023/04/18 13:17:27;;;;;;;;;35.50;32.25;;;;;;;;4981649;28;45392;-73
2023/04/18 13:19:52;;;;;;;;;32.75;32.50;;;;;;;;4986948;28;45354;-74
2023/04/18 13:22:21;;;;;;;;;36.25;33.25;;;;;;;;4988565;28;45397;-75
2023/04/18 13:24:46;;;;;;;;;38.25;36.25;;;;;;;;4979634;28;45577;-75
2023/04/18 13:27:12;;;;;;;;;34.75;31.25;;;;;;;;4992012;28;46391;-74
2023/04/18 13:29:37;;;;;;;;;27.00;25.00;;;;;;;;4983318;28;45359;-74
2023/04/18 13:32:03;;;;;;;;;29.00;27.25;;;;;;;;4984750;28;45402;-74
2023/04/18 13:34:28;;;;;;;;;33.00;30.25;;;;;;;;4988569;28;45440;-73
2023/04/18 13:36:53;;;;;;;;;25.00;25.00;;;;;;;;4978989;28;46038;-74
2023/04/18 13:39:19;;;;;;;;;26.25;26.25;;;;;;;;4989563;28;45761;-74
2023/04/18 13:41:44;;;;;;;;;29.25;26.50;;;;;;;;4983973;28;45506;-73
2023/04/18 13:44:09;;;;;;;;;25.00;23.75;;;;;;;;4983720;28;45262;-74
2023/04/18 13:46:35;;;;;;;;;29.50;27.75;;;;;;;;4986723;28;46671;-75
2023/04/18 13:49:00;;;;;;;;;32.00;26.00;;;;;;;;4987970;28;45341;-75
2023/04/18 13:51:26;;;;;;;;;28.00;27.00;;;;;;;;4990354;28;45336;-75
2023/04/18 13:53:51;;;;;;;;;25.50;21.25;;;;;;;;4984637;28;45369;-75
2023/04/18 13:56:16;;;;;;;;;25.75;24.75;;;;;;;;4990870;28;45356;-75
2023/04/18 13:58:41;;;;;;;;;18.50;18.00;;;;;;;;4979382;28;45334;-75
2023/04/18 14:01:07;;;;;;;;;10.75;10.75;;;;;;;;4991502;28;45393;-75
2023/04/18 14:03:32;;;;;;;;;19.00;17.00;;;;;;;;4982062;28;45351;-74
2023/04/18 14:05:58;;;;;;;;;26.00;23.75;;;;;;;;4984860;28;46317;-74
2023/04/18 14:08:23;;;;;;;;;15.25;15.25;;;;;;;;4985685;28;45282;-74
2023/04/18 14:10:48;;;;;;;;;29.50;26.50;;;;;;;;4978617;28;45401;-74